| time (UTC) | temp F | wind direction | speed knots | gust knots | rain 1hr in | rain 24hr in | rain mn in | humidity % | barometer mb |
| 20260504173507 | 78 | 179 | 1.7 | 2.6 | 0.00 | 0.00 | 0.00 | 39 | 1018.3 |
| 20260504173005 | 77 | 154 | 0.0 | 5.2 | 0.00 | 0.00 | 0.00 | 38 | 1018.3 |
| 20260504172501 | 78 | 221 | 1.7 | 2.6 | 0.00 | 0.00 | 0.00 | 38 | 1018.3 |
| 20260504171957 | 78 | 247 | 1.7 | 3.5 | 0.00 | 0.00 | 0.00 | 37 | 1018.3 |
| 20260504171454 | 78 | 162 | 0.0 | 1.7 | 0.00 | 0.00 | 0.00 | 38 | 1018.2 |
| 20260504170951 | 78 | 236 | 0.9 | 2.6 | 0.00 | 0.00 | 0.00 | 35 | 1018.2 |
| 20260504170447 | 78 | 233 | 0.9 | 2.6 | 0.00 | 0.00 | 0.00 | 40 | 1018.3 |
| 20260504160407 | 75 | 216 | 0.9 | 1.7 | 0.00 | 0.00 | 0.00 | 40 | 1019.3 |
| 20260504150831 | 76 | 245 | 0.9 | 1.7 | 0.00 | 0.00 | 0.00 | 42 | 1019.0 |
| 20260504150328 | 75 | 110 | 0.9 | 1.7 | 0.00 | 0.00 | 0.00 | 42 | 1019.2 |
| 20260504141258 | 73 | 3 | 0.9 | 0.9 | 0.00 | 0.00 | 0.00 | 42 | 1019.3 |
| 20260504140754 | 73 | 152 | 0.9 | 0.9 | 0.00 | 0.00 | 0.00 | 41 | 1019.3 |
| 20260504140250 | 73 | 80 | 0.0 | 0.0 | 0.00 | 0.00 | 0.00 | 42 | 1019.3 |
| 20260504130719 | 63 | 33 | 0.0 | 0.0 | 0.00 | 0.00 | 0.00 | 61 | 1019.3 |
| 20260504130214 | 62 | 17 | 0.0 | 0.0 | 0.00 | 0.00 | 0.00 | 62 | 1019.4 |
| 20260504120139 | 53 | 30 | 0.0 | 0.0 | 0.00 | 0.00 | 0.00 | 82 | 1018.6 |
| 20260504110606 | 51 | 38 | 0.0 | 0.0 | 0.00 | 0.00 | 0.00 | 83 | 1018.6 |
| 20260504100523 | 53 | 44 | 0.0 | 0.0 | 0.00 | 0.00 | 0.00 | 80 | 1018.5 |
| 20260504081910 | 54 | 32 | 0.0 | 0.0 | 0.00 | 0.00 | 0.00 | 80 | 1018.6 |
| 20260504081406 | 54 | 40 | 0.0 | 0.0 | 0.00 | 0.00 | 0.00 | 79 | 1018.7 |
| 20260504080902 | 54 | 43 | 0.0 | 0.0 | 0.00 | 0.00 | 0.00 | 77 | 1018.6 |
| 20260504080359 | 55 | 46 | 0.0 | 0.0 | 0.00 | 0.00 | 0.00 | 77 | 1018.7 |
| 20260504070327 | 56 | 30 | 0.0 | 0.0 | 0.00 | 0.00 | 0.00 | 76 | 1018.8 |
| 20260504060247 | 57 | 46 | 0.0 | 0.0 | 0.00 | 0.00 | 0.00 | 80 | 1019.2 |
| 20260504050715 | 58 | 41 | 0.0 | 0.0 | 0.00 | 0.00 | 0.00 | 81 | 1019.5 |
| 20260504050206 | 57 | 40 | 0.0 | 0.0 | 0.00 | 0.00 | 0.00 | 82 | 1019.6 |
| 20260504045703 | 57 | 37 | 0.0 | 0.0 | 0.00 | 0.00 | 0.00 | 83 | 1019.5 |
| 20260504045203 | 57 | 37 | 0.0 | 0.0 | 0.00 | 0.00 | 0.00 | 83 | 1019.6 |
| 20260504044701 | 57 | 37 | 0.0 | 0.0 | 0.00 | 0.00 | 0.00 | 84 | 1019.8 |
| 20260504044158 | 58 | 38 | 0.0 | 0.0 | 0.00 | 0.00 | 0.00 | 85 | 1019.5 |
| 20260504043655 | 58 | 39 | 0.0 | 0.0 | 0.00 | 0.00 | 0.00 | 85 | 1019.6 |
| 20260504043152 | 58 | 39 | 0.0 | 0.0 | 0.00 | 0.00 | 0.00 | 85 | 1019.5 |
| 20260504042649 | 58 | 39 | 0.0 | 0.0 | 0.00 | 0.00 | 0.00 | 85 | 1019.4 |
| 20260504042146 | 58 | 44 | 0.0 | 0.0 | 0.00 | 0.00 | 0.00 | 84 | 1019.5 |
| 20260504041642 | 59 | 44 | 0.0 | 0.0 | 0.00 | 0.00 | 0.00 | 84 | 1019.3 |
| 20260504041138 | 59 | 43 | 0.0 | 0.0 | 0.00 | 0.00 | 0.00 | 84 | 1019.3 |
| 20260504040635 | 59 | 43 | 0.0 | 0.0 | 0.00 | 0.00 | 0.00 | 83 | 1019.2 |
| 20260504040132 | 59 | 38 | 0.0 | 0.0 | 0.00 | 0.00 | 0.00 | 83 | 1019.4 |
| 20260504035629 | 60 | 37 | 0.0 | 0.0 | 0.00 | 0.00 | 0.00 | 83 | 1019.3 |
| 20260504035125 | 60 | 37 | 0.0 | 0.0 | 0.00 | 0.00 | 0.00 | 82 | 1019.4 |
| 20260504034623 | 60 | 31 | 0.0 | 0.0 | 0.00 | 0.00 | 0.00 | 82 | 1019.5 |
| 20260504034120 | 60 | 31 | 0.0 | 0.0 | 0.00 | 0.00 | 0.00 | 81 | 1019.4 |
| 20260504033618 | 61 | 31 | 0.0 | 0.0 | 0.00 | 0.00 | 0.00 | 80 | 1019.5 |
| 20260504033115 | 61 | 38 | 0.0 | 0.0 | 0.00 | 0.00 | 0.00 | 79 | 1019.6 |
| 20260504032612 | 62 | 38 | 0.0 | 0.0 | 0.00 | 0.00 | 0.00 | 77 | 1019.5 |
| 20260504032109 | 62 | 37 | 0.0 | 0.0 | 0.00 | 0.00 | 0.00 | 76 | 1019.6 |
| 20260504031606 | 63 | 39 | 0.0 | 0.0 | 0.00 | 0.00 | 0.00 | 76 | 1019.5 |
| 20260504031102 | 63 | 38 | 0.0 | 0.0 | 0.00 | 0.00 | 0.00 | 76 | 1019.5 |
| 20260504030559 | 63 | 38 | 0.0 | 0.0 | 0.00 | 0.00 | 0.00 | 76 | 1019.5 |
| 20260504030055 | 64 | 31 | 0.0 | 0.0 | 0.00 | 0.00 | 0.00 | 76 | 1019.6 |
| 20260504025553 | 64 | 70 | 0.0 | 0.0 | 0.00 | 0.00 | 0.00 | 76 | 1019.4 |
| 20260504025049 | 64 | 135 | 0.0 | 0.0 | 0.00 | 0.00 | 0.00 | 75 | 1019.4 |
| 20260504024546 | 64 | 57 | 0.0 | 0.9 | 0.00 | 0.00 | 0.00 | 75 | 1019.3 |
| 20260504024043 | 64 | 33 | 0.0 | 0.0 | 0.00 | 0.00 | 0.00 | 75 | 1019.2 |
| 20260504023540 | 64 | 53 | 0.0 | 0.0 | 0.00 | 0.00 | 0.00 | 75 | 1019.2 |
| 20260504023036 | 64 | 53 | 0.0 | 0.0 | 0.00 | 0.00 | 0.00 | 74 | 1019.2 |
| 20260504022532 | 65 | 53 | 0.0 | 0.0 | 0.00 | 0.00 | 0.00 | 73 | 1019.2 |
| 20260504022028 | 65 | 53 | 0.0 | 0.0 | 0.00 | 0.00 | 0.00 | 73 | 1019.3 |
| 20260504021526 | 66 | 46 | 0.0 | 0.9 | 0.00 | 0.00 | 0.00 | 71 | 1019.2 |
| 20260504021023 | 66 | 39 | 0.0 | 0.9 | 0.00 | 0.00 | 0.00 | 70 | 1019.2 |
| 20260504020519 | 67 | 49 | 0.0 | 0.0 | 0.00 | 0.00 | 0.00 | 68 | 1019.1 |
| 20260504020016 | 68 | 23 | 0.0 | 0.9 | 0.00 | 0.00 | 0.00 | 67 | 1019.0 |
| 20260504015512 | 68 | 46 | 0.0 | 0.0 | 0.00 | 0.00 | 0.00 | 65 | 1019.1 |
| 20260504015008 | 68 | 218 | 0.0 | 0.0 | 0.00 | 0.00 | 0.00 | 64 | 1019.0 |
| 20260504014504 | 69 | 71 | 0.0 | 0.9 | 0.00 | 0.00 | 0.00 | 62 | 1018.7 |
| 20260504014002 | 69 | 149 | 0.0 | 2.6 | 0.00 | 0.00 | 0.00 | 63 | 1018.8 |
| 20260504013500 | 69 | 76 | 0.0 | 0.0 | 0.00 | 0.00 | 0.00 | 64 | 1018.7 |
| 20260504012955 | 69 | 202 | 0.0 | 0.9 | 0.00 | 0.00 | 0.00 | 62 | 1018.9 |
| 20260504012454 | 69 | 66 | 0.0 | 1.7 | 0.00 | 0.00 | 0.00 | 62 | 1018.5 |
| 20260504011951 | 69 | 158 | 0.0 | 0.9 | 0.00 | 0.00 | 0.00 | 64 | 1018.5 |
| 20260504011447 | 69 | 256 | 0.9 | 1.7 | 0.00 | 0.00 | 0.00 | 63 | 1018.3 |
| 20260504010944 | 69 | 352 | 0.9 | 1.7 | 0.00 | 0.00 | 0.00 | 63 | 1018.4 |
| 20260504010439 | 69 | 176 | 0.0 | 0.9 | 0.00 | 0.00 | 0.00 | 63 | 1018.5 |
| 20260504005936 | 69 | 228 | 0.0 | 3.5 | 0.00 | 0.00 | 0.00 | 61 | 1018.3 |
| 20260504005433 | 69 | 137 | 0.0 | 0.9 | 0.00 | 0.00 | 0.00 | 62 | 1018.3 |
| 20260504004930 | 69 | 151 | 0.0 | 0.9 | 0.00 | 0.00 | 0.00 | 62 | 1018.4 |
| 20260504004428 | 69 | 230 | 0.9 | 1.7 | 0.00 | 0.00 | 0.00 | 60 | 1018.5 |
| 20260504003925 | 69 | 259 | 0.9 | 0.9 | 0.00 | 0.00 | 0.00 | 58 | 1018.4 |
| 20260504003421 | 69 | 183 | 0.9 | 1.7 | 0.00 | 0.00 | 0.00 | 57 | 1018.2 |
| 20260504002918 | 69 | 229 | 0.0 | 1.7 | 0.00 | 0.00 | 0.00 | 58 | 1018.3 |
| 20260504002415 | 69 | 116 | 0.0 | 0.9 | 0.00 | 0.00 | 0.00 | 57 | 1018.3 |
| 20260504001912 | 70 | 191 | 0.0 | 0.9 | 0.00 | 0.00 | 0.00 | 57 | 1018.1 |
| 20260504001410 | 69 | 159 | 0.0 | 0.0 | 0.00 | 0.00 | 0.00 | 54 | 1018.1 |
| 20260504000906 | 70 | 116 | 0.0 | 0.0 | 0.00 | 0.00 | 0.00 | 53 | 1018.0 |
| 20260504000403 | 70 | 231 | 0.0 | 0.0 | 0.00 | 0.00 | 0.00 | 49 | 1018.0 |
| 20260503235901 | 70 | 237 | 0.0 | 0.9 | 0.00 | 0.00 | 0.00 | 49 | 1017.9 |
| 20260503235358 | 71 | 235 | 0.0 | 0.9 | 0.00 | 0.00 | 0.00 | 50 | 1018.1 |
| 20260503234855 | 71 | 250 | 0.0 | 1.7 | 0.00 | 0.00 | 0.00 | 53 | 1017.9 |
| 20260503234353 | 71 | 220 | 0.0 | 0.9 | 0.00 | 0.00 | 0.00 | 53 | 1018.0 |
| 20260503233850 | 71 | 212 | 1.7 | 1.7 | 0.00 | 0.00 | 0.00 | 50 | 1017.9 |
| 20260503233347 | 71 | 223 | 0.0 | 1.7 | 0.00 | 0.00 | 0.00 | 51 | 1017.9 |
| 20260503232843 | 71 | 103 | 0.0 | 1.7 | 0.00 | 0.00 | 0.00 | 50 | 1017.8 |
| 20260503232340 | 72 | 235 | 0.9 | 0.9 | 0.00 | 0.00 | 0.00 | 50 | 1018.0 |
| 20260503231839 | 72 | 237 | 0.9 | 2.6 | 0.00 | 0.00 | 0.00 | 48 | 1018.0 |
| 20260503231335 | 72 | 297 | 0.9 | 1.7 | 0.00 | 0.00 | 0.00 | 48 | 1017.9 |
| 20260503230831 | 72 | 121 | 0.9 | 1.7 | 0.00 | 0.00 | 0.00 | 48 | 1018.0 |
| 20260503230328 | 72 | 39 | 0.0 | 0.0 | 0.00 | 0.00 | 0.00 | 49 | 1017.8 |
| 20260503225826 | 72 | 207 | 0.0 | 2.6 | 0.00 | 0.00 | 0.00 | 47 | 1017.9 |
| 20260503225322 | 72 | 250 | 0.9 | 3.5 | 0.00 | 0.00 | 0.00 | 47 | 1018.0 |
| 20260503224818 | 72 | 174 | 0.9 | 2.6 | 0.00 | 0.00 | 0.00 | 47 | 1017.9 |
| 20260503224316 | 73 | 190 | 2.6 | 5.2 | 0.00 | 0.00 | 0.00 | 49 | 1017.8 |
| 20260503223813 | 73 | 206 | 0.9 | 0.9 | 0.00 | 0.00 | 0.00 | 51 | 1017.8 |
| 20260503223311 | 73 | 174 | 0.9 | 2.6 | 0.00 | 0.00 | 0.00 | 46 | 1017.7 |
| 20260503222806 | 73 | 163 | 0.0 | 0.9 | 0.00 | 0.00 | 0.00 | 47 | 1017.8 |
| 20260503222305 | 73 | 223 | 1.7 | 1.7 | 0.00 | 0.00 | 0.00 | 44 | 1018.0 |
| 20260503221803 | 73 | 182 | 0.9 | 0.9 | 0.00 | 0.00 | 0.00 | 46 | 1018.1 |
| 20260503221300 | 73 | 157 | 1.7 | 3.5 | 0.00 | 0.00 | 0.00 | 46 | 1017.9 |
| 20260503220756 | 73 | 168 | 0.9 | 2.6 | 0.00 | 0.00 | 0.00 | 46 | 1018.0 |
| 20260503220254 | 73 | 216 | 1.7 | 3.5 | 0.00 | 0.00 | 0.00 | 46 | 1018.1 |
| 20260503215750 | 75 | 171 | 0.9 | 7.0 | 0.00 | 0.00 | 0.00 | 45 | 1018.0 |
| 20260503215247 | 75 | 220 | 1.7 | 1.7 | 0.00 | 0.00 | 0.00 | 46 | 1018.2 |
| 20260503214745 | 75 | 227 | 1.7 | 2.6 | 0.00 | 0.00 | 0.00 | 42 | 1018.2 |
| 20260503214242 | 76 | 226 | 0.9 | 3.5 | 0.00 | 0.00 | 0.00 | 45 | 1018.0 |
| 20260503213740 | 77 | 244 | 1.7 | 2.6 | 0.00 | 0.00 | 0.00 | 43 | 1018.1 |
| 20260503213237 | 78 | 245 | 0.0 | 1.7 | 0.00 | 0.00 | 0.00 | 42 | 1018.1 |
| 20260503212734 | 78 | 49 | 0.9 | 0.9 | 0.00 | 0.00 | 0.00 | 38 | 1018.1 |
| 20260503212232 | 78 | 331 | 0.9 | 1.7 | 0.00 | 0.00 | 0.00 | 38 | 1018.2 |
| 20260503211729 | 79 | 97 | 2.6 | 3.5 | 0.00 | 0.00 | 0.00 | 39 | 1018.2 |
| 20260503211225 | 79 | 262 | 0.0 | 1.7 | 0.00 | 0.00 | 0.00 | 38 | 1018.0 |
| 20260503210720 | 80 | 288 | 2.6 | 3.5 | 0.00 | 0.00 | 0.00 | 28 | 1018.3 |
| 20260503210218 | 80 | 191 | 0.9 | 1.7 | 0.00 | 0.00 | 0.00 | 28 | 1018.3 |
| 20260503205713 | 80 | 281 | 1.7 | 3.5 | 0.00 | 0.00 | 0.00 | 29 | 1018.3 |
| 20260503205210 | 80 | 269 | 1.7 | 1.7 | 0.00 | 0.00 | 0.00 | 29 | 1018.3 |
| 20260503204706 | 80 | 86 | 0.9 | 2.6 | 0.00 | 0.00 | 0.00 | 29 | 1018.4 |
| 20260503204204 | 80 | 156 | 0.9 | 6.1 | 0.00 | 0.00 | 0.00 | 31 | 1018.3 |
| 20260503203701 | 80 | 292 | 0.9 | 1.7 | 0.00 | 0.00 | 0.00 | 31 | 1018.4 |
| 20260503203159 | 79 | 36 | 0.9 | 1.7 | 0.00 | 0.00 | 0.00 | 29 | 1018.5 |
| 20260503202655 | 79 | 268 | 1.7 | 7.0 | 0.00 | 0.00 | 0.00 | 29 | 1018.4 |
| 20260503202154 | 81 | 275 | 0.9 | 1.7 | 0.00 | 0.00 | 0.00 | 31 | 1018.6 |
| 20260503201651 | 80 | 319 | 0.9 | 2.6 | 0.00 | 0.00 | 0.00 | 33 | 1018.9 |
| 20260503201149 | 80 | 259 | 3.5 | 6.1 | 0.00 | 0.00 | 0.00 | 31 | 1019.1 |
| 20260503200644 | 78 | 264 | 0.9 | 2.6 | 0.00 | 0.00 | 0.00 | 30 | 1018.8 |
| 20260503200141 | 79 | 264 | 3.5 | 5.2 | 0.00 | 0.00 | 0.00 | 30 | 1019.2 |
| 20260503195638 | 80 | 285 | 3.5 | 5.2 | 0.00 | 0.00 | 0.00 | 29 | 1019.1 |
| 20260503195135 | 79 | 148 | 0.9 | 1.7 | 0.00 | 0.00 | 0.00 | 32 | 1019.3 |
| 20260503194632 | 78 | 281 | 2.6 | 2.6 | 0.00 | 0.00 | 0.00 | 30 | 1019.4 |
| 20260503194127 | 78 | 283 | 1.7 | 3.5 | 0.00 | 0.00 | 0.00 | 31 | 1019.4 |
| 20260503193625 | 78 | 289 | 3.5 | 5.2 | 0.00 | 0.00 | 0.00 | 29 | 1019.5 |
| 20260503193120 | 78 | 220 | 0.0 | 2.6 | 0.00 | 0.00 | 0.00 | 31 | 1019.4 |
| 20260503192616 | 78 | 34 | 0.9 | 7.0 | 0.00 | 0.00 | 0.00 | 32 | 1019.6 |
| 20260503192112 | 78 | 279 | 0.9 | 2.6 | 0.00 | 0.00 | 0.00 | 34 | 1019.5 |
| 20260503191609 | 79 | 306 | 3.5 | 5.2 | 0.00 | 0.00 | 0.00 | 32 | 1019.9 |
| 20260503191105 | 77 | 282 | 0.0 | 2.6 | 0.00 | 0.00 | 0.00 | 30 | 1019.9 |
| 20260503190603 | 77 | 273 | 1.7 | 2.6 | 0.00 | 0.00 | 0.00 | 30 | 1020.0 |
| 20260503190100 | 78 | 354 | 1.7 | 2.6 | 0.00 | 0.00 | 0.00 | 30 | 1020.1 |
| 20260503185556 | 78 | 166 | 0.9 | 2.6 | 0.00 | 0.00 | 0.00 | 32 | 1020.1 |
| 20260503185056 | 78 | 59 | 0.9 | 2.6 | 0.00 | 0.00 | 0.00 | 33 | 1020.2 |
| 20260503184552 | 78 | 288 | 1.7 | 3.5 | 0.00 | 0.00 | 0.00 | 31 | 1020.2 |
| 20260503184049 | 78 | 289 | 0.9 | 2.6 | 0.00 | 0.00 | 0.00 | 31 | 1020.4 |
| 20260503183545 | 77 | 287 | 1.7 | 5.2 | 0.00 | 0.00 | 0.00 | 30 | 1020.4 |
| 20260503183042 | 79 | 269 | 1.7 | 3.5 | 0.00 | 0.00 | 0.00 | 30 | 1020.5 |
| 20260503182541 | 77 | 70 | 0.0 | 1.7 | 0.00 | 0.00 | 0.00 | 32 | 1020.3 |
| 20260503182039 | 78 | 329 | 1.7 | 2.6 | 0.00 | 0.00 | 0.00 | 32 | 1020.5 |
| 20260503181535 | 76 | 273 | 1.7 | 5.2 | 0.00 | 0.00 | 0.00 | 34 | 1020.5 |
| 20260503181032 | 77 | 308 | 6.1 | 7.0 | 0.00 | 0.00 | 0.00 | 31 | 1020.6 |
| 20260503180529 | 78 | 249 | 0.9 | 1.7 | 0.00 | 0.00 | 0.00 | 33 | 1020.4 |
| 20260503180026 | 76 | 168 | 0.9 | 8.7 | 0.00 | 0.00 | 0.00 | 35 | 1020.5 |
| 20260503175524 | 76 | 327 | 2.6 | 5.2 | 0.00 | 0.00 | 0.00 | 32 | 1020.5 |
| 20260503175020 | 76 | 326 | 1.7 | 3.5 | 0.00 | 0.00 | 0.00 | 33 | 1020.7 |
| 20260503174518 | 76 | 234 | 1.7 | 3.5 | 0.00 | 0.00 | 0.00 | 33 | 1020.7 |
| 20260503174014 | 76 | 9 | 2.6 | 2.6 | 0.00 | 0.00 | 0.00 | 33 | 1020.9 |